Time;durP1;ratioP1;P1;durP2;ratioP2;P2;SDS_P1;SDS_P2;PMS_P1;PMS_P2;Temp;Humidity;BMP_temperature;BMP_pressure;BME280_temperature;BME280_humidity;BME280_pressure;Samples;Min_cycle;Max_cycle;Signal;HPM_P1;HPM_P2
2021/11/03 00:02:36;;;;;;;11.10;5.97;;;;;;;2.23;98.97;98949.88;5035464;28;20060;-79
2021/11/03 00:05:22;;;;;;;10.93;5.77;;;;;;;2.18;99.04;98957.38;5034506;28;20111;-80
2021/11/03 00:08:07;;;;;;;10.57;5.70;;;;;;;2.23;99.39;98955.19;5035868;28;20383;-79
2021/11/03 00:10:53;;;;;;;12.98;7.13;;;;;;;2.28;99.54;98953.03;5039257;28;20056;-78
2021/11/03 00:13:40;;;;;;;13.43;6.78;;;;;;;2.31;99.91;98952.78;5039918;28;20164;-80
2021/11/03 00:16:25;;;;;;;15.80;7.07;;;;;;;2.24;99.85;98951.56;5032326;28;20052;-79
2021/11/03 00:19:10;;;;;;;14.38;6.93;;;;;;;2.22;99.48;98953.50;5035739;28;20410;-79
2021/11/03 00:21:55;;;;;;;14.85;6.95;;;;;;;2.33;100.00;98956.97;5032777;28;20083;-81
2021/11/03 00:24:41;;;;;;;14.68;7.00;;;;;;;2.27;100.00;98952.19;5032199;28;20407;-80
2021/11/03 00:27:26;;;;;;;17.60;7.78;;;;;;;2.35;100.00;98954.19;5030708;28;20136;-79
2021/11/03 00:30:12;;;;;;;17.80;7.43;;;;;;;2.33;99.51;98945.53;5027831;28;20052;-79
2021/11/03 00:32:57;;;;;;;14.38;8.57;;;;;;;2.34;100.00;98956.00;5033104;28;20096;-78
2021/11/03 00:35:42;;;;;;;15.20;8.40;;;;;;;2.32;100.00;98939.41;5031130;28;20411;-79
2021/11/03 00:38:28;;;;;;;15.57;7.75;;;;;;;2.34;100.00;98948.06;5033229;28;20446;-81
2021/11/03 00:41:13;;;;;;;12.80;6.55;;;;;;;2.31;100.00;98944.81;5032772;28;20098;-79
2021/11/03 00:43:59;;;;;;;13.95;7.82;;;;;;;2.21;99.83;98946.53;5032841;28;20052;-78
2021/11/03 00:46:45;;;;;;;18.77;7.90;;;;;;;2.16;100.00;98943.41;5029689;28;20118;-79
2021/11/03 00:49:30;;;;;;;;;;;;;;;2.13;99.48;98946.28;5034526;28;21301;-78
2021/11/03 00:52:15;;;;;;;10.80;5.65;;;;;;;2.16;100.00;98946.06;5032647;28;20437;-78
2021/11/03 00:55:01;;;;;;;13.27;6.18;;;;;;;2.28;100.00;98939.78;5031178;28;20056;-78
2021/11/03 00:57:46;;;;;;;10.82;5.40;;;;;;;2.34;100.00;98940.13;5029090;28;20056;-77
2021/11/03 01:00:32;;;;;;;11.13;5.80;;;;;;;2.32;99.93;98935.91;5032296;28;20064;-79
2021/11/03 01:03:19;;;;;;;;;;;;;;;2.31;100.00;98932.44;5018641;28;20103;-79
2021/11/03 01:06:04;;;;;;;10.65;5.60;;;;;;;2.24;99.77;98919.81;5032735;28;19931;-78
2021/11/03 01:08:49;;;;;;;9.33;5.37;;;;;;;2.23;99.63;98929.56;5034178;28;20060;-77
2021/11/03 01:11:35;;;;;;;12.13;6.80;;;;;;;2.48;99.40;98932.84;5039689;28;20053;-78
2021/11/03 01:14:21;;;;;;;12.03;7.03;;;;;;;2.43;99.05;98930.59;5033659;28;20064;-78
2021/11/03 01:17:06;;;;;;;13.32;7.43;;;;;;;2.40;99.31;98930.00;5033104;28;20119;-78
2021/11/03 01:19:53;;;;;;;14.18;6.43;;;;;;;2.26;99.06;98926.69;5031194;28;20183;-78
2021/11/03 01:22:39;;;;;;;11.98;6.72;;;;;;;2.23;98.91;98924.25;5033575;28;20055;-78
2021/11/03 01:25:26;;;;;;;14.45;7.88;;;;;;;2.22;99.10;98927.88;5032913;28;20099;-77
2021/11/03 01:28:11;;;;;;;11.07;6.53;;;;;;;2.13;99.60;98918.03;5026109;28;20061;-78
2021/11/03 01:30:57;;;;;;;17.20;6.63;;;;;;;2.05;98.40;98925.75;5027189;28;20191;-78
2021/11/03 01:33:42;;;;;;;14.88;7.85;;;;;;;2.03;99.09;98917.94;5028238;28;20462;-79
2021/11/03 01:36:29;;;;;;;14.00;7.20;;;;;;;2.05;99.44;98929.22;5024566;28;20052;-77
2021/11/03 01:39:14;;;;;;;12.77;7.22;;;;;;;2.04;98.85;98930.19;5033389;28;20060;-81
2021/11/03 01:41:59;;;;;;;10.85;6.35;;;;;;;1.83;98.63;98931.06;5033790;28;20056;-78
2021/11/03 01:44:44;;;;;;;11.98;7.05;;;;;;;1.75;99.00;98934.28;5024143;28;20052;-79
2021/11/03 01:47:43;;;;;;;12.82;7.13;;;;;;;2.07;99.78;98928.25;5031434;28;20522;-79
2021/11/03 01:53:39;;;;;;;13.40;7.65;;;;;;;1.96;99.74;98926.47;4968722;28;20138;-66
2021/11/03 01:56:24;;;;;;;14.95;7.88;;;;;;;2.18;100.00;98931.75;4969318;28;20050;-65
2021/11/03 01:59:18;;;;;;;14.88;8.15;;;;;;;2.37;100.00;98939.06;4970746;28;20069;-65
2021/11/03 02:02:03;;;;;;;13.57;7.43;;;;;;;2.47;99.83;98926.72;4970600;28;20083;-65
2021/11/03 02:04:49;;;;;;;17.55;8.38;;;;;;;2.52;100.00;98932.50;4970795;28;20053;-65
2021/11/03 02:10:14;;;;;;;15.25;7.70;;;;;;;2.53;100.00;98925.41;5027868;28;20147;-61
2021/11/03 02:12:59;;;;;;;12.95;7.80;;;;;;;2.57;100.00;98924.16;5026100;28;20052;-62
2021/11/03 02:15:45;;;;;;;15.80;7.70;;;;;;;2.51;100.00;98924.69;5024211;28;20131;-61
2021/11/03 02:18:32;;;;;;;12.43;7.22;;;;;;;2.53;99.91;98912.16;5029620;28;20303;-62
2021/11/03 02:21:22;;;;;;;10.65;6.30;;;;;;;2.46;100.00;98918.91;5027385;28;20045;-62
2021/11/03 02:24:15;;;;;;;13.48;7.15;;;;;;;2.45;99.65;98920.72;5029816;28;20122;-60
2021/11/03 02:27:03;;;;;;;15.20;7.03;;;;;;;2.48;99.86;98917.81;5027215;28;20403;-60
2021/11/03 02:29:48;;;;;;;12.50;6.30;;;;;;;2.50;99.57;98920.34;5030669;28;20518;-63
2021/11/03 02:32:34;;;;;;;12.27;6.93;;;;;;;2.38;99.70;98927.50;5032532;28;20111;-62
2021/11/03 02:35:19;;;;;;;13.27;7.95;;;;;;;2.22;99.65;98927.88;5032387;28;20126;-59
2021/11/03 02:38:06;;;;;;;14.70;7.45;;;;;;;2.15;99.86;98934.63;5031981;28;20134;-59
2021/11/03 02:40:57;;;;;;;13.52;7.28;;;;;;;2.14;100.00;98930.31;5032228;28;20526;-62
2021/11/03 02:43:47;;;;;;;16.52;7.40;;;;;;;2.46;100.00;98929.50;5028856;28;20080;-59
2021/11/03 02:46:33;;;;;;;12.55;7.28;;;;;;;2.53;100.00;98926.22;5032252;28;20048;-62
2021/11/03 02:49:18;;;;;;;14.90;7.63;;;;;;;2.59;100.00;98931.00;5030813;28;20466;-61
2021/11/03 02:52:12;;;;;;;18.83;7.90;;;;;;;2.73;100.00;98935.22;5033500;28;20115;-61
2021/11/03 02:54:56;;;;;;;16.23;7.57;;;;;;;2.97;100.00;98942.94;5032246;28;20138;-63
2021/11/03 02:57:41;;;;;;;16.85;8.38;;;;;;;3.12;100.00;98931.03;5028827;28;20057;-61
2021/11/03 03:00:27;;;;;;;16.63;9.18;;;;;;;3.25;100.00;98930.00;5032309;28;20055;-63
2021/11/03 03:03:13;;;;;;;16.10;8.70;;;;;;;3.32;100.00;98931.19;5028426;28;20155;-61
2021/11/03 03:06:05;;;;;;;16.27;8.50;;;;;;;3.45;100.00;98937.13;5031107;28;20099;-64
2021/11/03 03:08:51;;;;;;;14.95;7.40;;;;;;;3.52;100.00;98935.59;5031286;28;20056;-62
2021/11/03 03:11:40;;;;;;;14.00;7.35;;;;;;;3.61;100.00;98934.81;5032706;28;20056;-61
2021/11/03 03:14:27;;;;;;;12.50;7.60;;;;;;;3.72;100.00;98936.56;5027351;28;20407;-61
2021/11/03 03:17:15;;;;;;;16.35;8.43;;;;;;;3.80;100.00;98940.22;5030634;28;20423;-60
2021/11/03 03:20:00;;;;;;;15.00;8.63;;;;;;;3.75;100.00;98941.59;5030173;28;20111;-61
2021/11/03 03:22:45;;;;;;;13.23;7.13;;;;;;;3.77;100.00;98943.13;5031805;28;20159;-59
2021/11/03 03:25:33;;;;;;;13.40;7.40;;;;;;;3.81;100.00;98938.41;5031885;28;20057;-62
2021/11/03 03:28:18;;;;;;;12.32;7.63;;;;;;;3.87;100.00;98947.66;5031325;28;20462;-58
2021/11/03 03:31:05;;;;;;;12.10;7.00;;;;;;;3.93;100.00;98944.47;5026026;28;20052;-60
2021/11/03 03:33:53;;;;;;;13.57;8.88;;;;;;;3.97;100.00;98941.41;5031093;28;20134;-63
2021/11/03 03:36:38;;;;;;;13.30;6.57;;;;;;;3.94;100.00;98951.47;5030044;28;20052;-60
2021/11/03 03:39:26;;;;;;;11.25;6.97;;;;;;;3.91;100.00;98941.94;5032023;28;20052;-61
2021/11/03 03:42:14;;;;;;;13.20;7.47;;;;;;;4.00;100.00;98953.56;5026717;28;20107;-60
2021/11/03 03:44:59;;;;;;;14.85;7.65;;;;;;;3.90;100.00;98960.63;5029852;28;20106;-59
2021/11/03 03:47:44;;;;;;;14.57;8.73;;;;;;;3.90;100.00;98965.94;5030085;28;20080;-60
2021/11/03 03:50:31;;;;;;;16.77;9.13;;;;;;;3.91;100.00;98957.03;5027612;28;20072;-60
2021/11/03 03:53:16;;;;;;;15.23;8.65;;;;;;;4.02;100.00;98959.56;5031719;28;20135;-61
2021/11/03 03:56:01;;;;;;;16.65;8.27;;;;;;;4.10;100.00;98960.59;5026972;28;20053;-60
2021/11/03 03:58:48;;;;;;;20.35;7.97;;;;;;;4.09;100.00;98958.91;5021480;28;20172;-62
2021/11/03 04:01:33;;;;;;;16.02;8.40;;;;;;;4.03;100.00;98959.47;5031934;28;20055;-63
2021/11/03 04:04:19;;;;;;;17.73;7.90;;;;;;;3.92;100.00;98959.56;5029477;28;20506;-58
2021/11/03 04:07:05;;;;;;;17.17;8.85;;;;;;;3.89;100.00;98954.50;5030834;28;20191;-60
2021/11/03 04:09:50;;;;;;;13.68;7.57;;;;;;;3.99;100.00;98962.50;5030430;28;20052;-61
2021/11/03 04:12:36;;;;;;;15.85;8.10;;;;;;;4.30;100.00;98963.31;5028642;28;20192;-62
2021/11/03 04:15:22;;;;;;;14.48;7.88;;;;;;;4.30;100.00;98964.16;5031801;28;20056;-61
2021/11/03 04:18:07;;;;;;;13.48;7.43;;;;;;;4.29;100.00;98964.31;5029313;28;20423;-59
2021/11/03 04:20:52;;;;;;;19.23;7.97;;;;;;;4.26;100.00;98964.53;5030939;28;20180;-59
2021/11/03 04:23:39;;;;;;;12.75;7.03;;;;;;;4.33;100.00;98971.84;5030898;28;20056;-62
2021/11/03 04:26:28;;;;;;;12.65;6.90;;;;;;;4.31;100.00;98971.16;5028438;28;20053;-61
2021/11/03 04:29:15;;;;;;;14.65;6.43;;;;;;;4.33;100.00;98974.50;5029621;28;20419;-62
2021/11/03 04:32:00;;;;;;;;;;;;;;;4.31;100.00;98965.84;5030975;28;20059;-61
2021/11/03 04:34:45;;;;;;;9.93;5.32;;;;;;;4.23;100.00;98978.94;5024143;28;19974;-60
2021/11/03 04:37:30;;;;;;;13.05;6.80;;;;;;;4.04;100.00;98979.72;5028099;28;20108;-64
2021/11/03 04:40:20;;;;;;;14.25;7.43;;;;;;;3.96;100.00;98974.22;5030086;28;20160;-63
2021/11/03 04:43:05;;;;;;;12.93;6.75;;;;;;;3.80;100.00;98974.72;5026847;28;20415;-62
2021/11/03 04:45:50;;;;;;;12.00;5.85;;;;;;;3.64;99.59;98974.34;5029221;28;20056;-61
2021/11/03 04:48:35;;;;;;;10.52;6.20;;;;;;;3.71;99.17;98972.03;5029428;28;20071;-59
2021/11/03 04:51:21;;;;;;;12.37;6.40;;;;;;;3.52;98.66;98962.97;5026244;28;20053;-60
2021/11/03 04:54:06;;;;;;;11.65;6.50;;;;;;;3.42;99.46;98979.78;5029794;28;20052;-63
2021/11/03 04:56:52;;;;;;;9.07;5.85;;;;;;;3.20;98.63;98981.63;5027923;28;20048;-63
2021/11/03 04:59:37;;;;;;;12.55;6.50;;;;;;;3.21;99.29;98970.03;5030944;28;20486;-62
2021/11/03 05:02:23;;;;;;;11.70;5.97;;;;;;;3.25;99.98;98965.31;5030513;28;20415;-62
2021/11/03 05:05:09;;;;;;;14.02;6.60;;;;;;;3.14;99.72;98971.50;5028115;28;20057;-59
2021/11/03 05:07:54;;;;;;;11.57;6.23;;;;;;;3.10;100.00;98966.59;5024849;28;20510;-61
2021/11/03 05:10:40;;;;;;;10.77;6.27;;;;;;;3.09;100.00;98960.47;5030037;28;20303;-61
2021/11/03 05:13:26;;;;;;;10.98;5.93;;;;;;;3.26;100.00;98966.16;5030512;28;20056;-61
2021/11/03 05:16:14;;;;;;;13.50;7.22;;;;;;;3.35;100.00;98963.56;5029384;28;20060;-61
2021/11/03 05:19:00;;;;;;;10.27;5.60;;;;;;;3.29;100.00;98955.28;5030182;28;20056;-61
2021/11/03 05:21:50;;;;;;;11.82;5.55;;;;;;;3.29;100.00;98965.88;5029299;28;20462;-61
2021/11/03 05:24:35;;;;;;;8.05;5.63;;;;;;;3.34;100.00;98961.06;5029911;28;20060;-62
2021/11/03 05:27:20;;;;;;;10.68;6.15;;;;;;;3.48;100.00;98964.22;5027928;28;20142;-63
2021/11/03 05:30:08;;;;;;;9.57;5.53;;;;;;;3.54;100.00;98957.53;5025561;28;20056;-61
2021/11/03 05:32:53;;;;;;;11.18;5.97;;;;;;;3.58;100.00;98960.78;5028896;28;20127;-63
2021/11/03 05:35:38;;;;;;;10.83;5.87;;;;;;;3.62;100.00;98960.38;5028072;28;20422;-62
2021/11/03 05:38:23;;;;;;;13.00;6.15;;;;;;;3.65;100.00;98959.25;5029561;28;20127;-63
2021/11/03 05:41:09;;;;;;;14.60;5.82;;;;;;;3.66;100.00;98961.78;5024329;28;20510;-63
2021/11/03 05:43:54;;;;;;;10.88;5.70;;;;;;;3.70;100.00;98967.69;5020032;28;20084;-62
2021/11/03 05:46:44;;;;;;;9.75;5.88;;;;;;;3.74;100.00;98974.41;5018414;28;20056;-64
2021/11/03 05:49:32;;;;;;;9.75;5.93;;;;;;;3.75;100.00;98966.31;5029766;28;20172;-60
2021/11/03 05:52:18;;;;;;;13.07;7.10;;;;;;;3.78;100.00;98967.84;5022572;28;20056;-60
2021/11/03 05:55:04;;;;;;;11.68;6.95;;;;;;;3.81;100.00;98968.44;5027671;28;20073;-60
2021/11/03 05:57:50;;;;;;;9.93;5.80;;;;;;;3.85;100.00;98973.47;5025195;28;20123;-61
2021/11/03 06:00:37;;;;;;;9.57;5.68;;;;;;;3.89;100.00;98975.72;5031264;28;20111;-62
2021/11/03 06:03:23;;;;;;;14.85;7.18;;;;;;;3.87;100.00;98979.50;5028117;28;20527;-63
2021/11/03 06:06:10;;;;;;;;;;;;;;;3.95;100.00;98995.59;5030341;28;20056;-61
2021/11/03 06:08:55;;;;;;;12.32;6.00;;;;;;;3.93;100.00;99000.22;5026356;28;19998;-63
2021/11/03 06:11:43;;;;;;;9.23;5.47;;;;;;;3.97;100.00;98999.81;5031877;28;20056;-63
2021/11/03 06:14:28;;;;;;;12.05;6.38;;;;;;;3.99;100.00;99007.63;5032255;28;20733;-61
2021/11/03 06:17:14;;;;;;;13.00;7.20;;;;;;;4.03;100.00;99009.91;5029457;28;20049;-63
2021/11/03 06:20:00;;;;;;;14.90;7.30;;;;;;;4.10;100.00;99020.81;5025542;28;20068;-63
2021/11/03 06:22:45;;;;;;;13.68;6.82;;;;;;;4.01;100.00;99030.41;5030074;28;20525;-60
2021/11/03 06:25:30;;;;;;;14.18;7.90;;;;;;;4.01;100.00;99029.56;5030167;28;20060;-60
2021/11/03 06:28:15;;;;;;;16.13;7.50;;;;;;;4.09;100.00;99032.41;5026476;28;20088;-62
2021/11/03 06:31:00;;;;;;;16.02;7.80;;;;;;;4.26;100.00;99042.44;5035103;28;20060;-63
2021/11/03 06:33:45;;;;;;;14.35;7.55;;;;;;;4.38;100.00;99033.41;5030196;28;20064;-62
2021/11/03 06:36:32;;;;;;;14.57;7.22;;;;;;;4.54;99.08;99024.91;5025643;28;20064;-61
2021/11/03 06:39:17;;;;;;;14.52;6.65;;;;;;;4.51;99.71;99029.66;5031693;28;20044;-61
2021/11/03 06:42:02;;;;;;;14.60;7.28;;;;;;;4.46;99.80;99031.88;5032274;28;20064;-61
2021/11/03 06:44:47;;;;;;;13.32;7.50;;;;;;;4.50;100.00;99047.44;5032726;28;20061;-60
2021/11/03 06:47:33;;;;;;;12.77;7.22;;;;;;;4.54;100.00;99040.84;5031144;28;20056;-62
2021/11/03 06:50:22;;;;;;;14.75;8.18;;;;;;;4.66;100.00;99039.78;5028130;28;20056;-61
2021/11/03 06:53:12;;;;;;;12.93;7.43;;;;;;;4.68;100.00;99037.81;5028667;28;20189;-63
2021/11/03 06:55:57;;;;;;;13.32;6.82;;;;;;;4.69;100.00;99036.00;5029131;28;20438;-64
2021/11/03 06:58:42;;;;;;;16.90;7.80;;;;;;;4.74;100.00;99048.91;5024813;28;20510;-60
2021/11/03 07:01:27;;;;;;;12.10;6.50;;;;;;;4.77;100.00;99043.31;5024193;28;20463;-63
2021/11/03 07:04:14;;;;;;;11.95;6.75;;;;;;;4.74;100.00;99049.72;5018935;28;20056;-62
2021/11/03 07:07:00;;;;;;;14.18;7.60;;;;;;;4.78;100.00;99047.63;5015494;28;20057;-63
2021/11/03 07:09:46;;;;;;;14.63;8.20;;;;;;;4.87;100.00;99052.97;5017662;28;20068;-60
2021/11/03 07:12:31;;;;;;;13.35;7.25;;;;;;;4.94;99.88;99051.44;5017868;28;20158;-62
2021/11/03 07:15:17;;;;;;;13.27;7.10;;;;;;;5.02;99.87;99052.56;5020089;28;20451;-60
2021/11/03 07:18:04;;;;;;;14.70;7.88;;;;;;;5.05;99.31;99054.94;5015538;28;20053;-61
2021/11/03 07:20:49;;;;;;;19.50;7.00;;;;;;;5.05;97.98;99062.94;5025076;28;20064;-62
2021/11/03 07:23:34;;;;;;;14.45;8.02;;;;;;;5.16;97.26;99057.50;5018313;28;20416;-62
2021/11/03 07:26:20;;;;;;;17.45;7.40;;;;;;;5.29;97.79;99056.22;5019199;28;20060;-63
2021/11/03 07:29:06;;;;;;;12.57;6.28;;;;;;;5.37;97.91;99068.00;5021289;28;20099;-64
2021/11/03 07:31:51;;;;;;;13.80;6.43;;;;;;;5.43;97.26;99065.59;5023205;28;20328;-61
2021/11/03 07:34:36;;;;;;;11.18;6.63;;;;;;;5.57;96.13;99053.72;5023303;28;20052;-65
2021/11/03 07:37:21;;;;;;;12.43;7.70;;;;;;;5.63;96.33;99060.28;5021589;28;20057;-61
2021/11/03 07:40:09;;;;;;;11.38;6.78;;;;;;;5.67;96.08;99067.84;5020141;28;20053;-60
2021/11/03 07:42:59;;;;;;;10.50;6.30;;;;;;;5.75;95.25;99072.47;5015629;28;20052;-63
2021/11/03 07:45:46;;;;;;;13.27;7.40;;;;;;;5.71;96.23;99073.75;5017702;28;20423;-63
2021/11/03 07:48:31;;;;;;;12.43;7.80;;;;;;;5.74;94.84;99073.44;5022147;28;20073;-62
2021/11/03 07:51:18;;;;;;;13.73;6.90;;;;;;;5.88;95.06;99084.50;5022662;28;20538;-62
2021/11/03 07:54:04;;;;;;;9.40;5.78;;;;;;;5.89;94.95;99088.00;5018060;28;20053;-62
2021/11/03 07:56:50;;;;;;;11.25;6.05;;;;;;;5.80;94.69;99083.53;5021629;28;20065;-61
2021/11/03 07:59:37;;;;;;;11.60;6.93;;;;;;;5.84;94.84;99091.09;5020353;28;20057;-63
2021/11/03 08:02:22;;;;;;;9.93;5.88;;;;;;;5.91;96.27;99091.38;5028563;28;20607;-62
2021/11/03 08:05:07;;;;;;;9.32;6.22;;;;;;;5.97;95.44;99090.00;5020780;28;20498;-62
2021/11/03 08:07:53;;;;;;;10.30;5.83;;;;;;;6.01;95.03;99096.69;5015673;28;20456;-63
2021/11/03 08:10:41;;;;;;;11.10;6.43;;;;;;;6.09;95.45;99088.84;5022379;28;20044;-62
2021/11/03 08:13:30;;;;;;;11.30;5.90;;;;;;;6.26;93.42;99085.41;5021447;28;20057;-64
2021/11/03 08:16:17;;;;;;;12.57;6.15;;;;;;;6.39;95.13;99083.31;5022823;28;20064;-64
2021/11/03 08:19:03;;;;;;;8.70;5.63;;;;;;;6.53;93.65;99081.16;5016737;28;20048;-62
2021/11/03 08:21:48;;;;;;;9.55;5.93;;;;;;;6.65;92.80;99086.13;5021945;28;20056;-63
2021/11/03 08:24:33;;;;;;;12.68;5.55;;;;;;;6.73;92.82;99083.56;5025389;28;20065;-62
2021/11/03 08:27:22;;;;;;;10.48;6.30;;;;;;;6.89;92.62;99084.75;5016657;28;20052;-62
2021/11/03 08:30:10;;;;;;;10.05;5.50;;;;;;;6.94;91.32;99077.97;5019097;28;20076;-63
2021/11/03 08:33:02;;;;;;;9.40;5.78;;;;;;;7.07;90.99;99085.63;5021024;28;20135;-63
2021/11/03 08:35:50;;;;;;;9.63;5.22;;;;;;;6.92;90.48;99076.44;5021384;28;20057;-63
2021/11/03 08:38:36;;;;;;;7.93;4.82;;;;;;;7.03;90.80;99078.91;5026757;28;20175;-62
2021/11/03 08:41:22;;;;;;;8.82;5.00;;;;;;;6.98;90.04;99075.84;5022327;28;20073;-62
2021/11/03 08:44:07;;;;;;;7.93;4.88;;;;;;;7.01;90.04;99070.22;5019072;28;20522;-62
2021/11/03 08:46:52;;;;;;;9.98;5.03;;;;;;;7.07;90.92;99064.28;5021745;28;20052;-63
2021/11/03 08:49:40;;;;;;;8.10;4.40;;;;;;;6.88;89.06;99075.91;5023235;28;20060;-62
2021/11/03 08:52:25;;;;;;;8.65;5.13;;;;;;;6.79;90.63;99070.63;5019268;28;20053;-63
2021/11/03 08:55:10;;;;;;;7.15;4.47;;;;;;;6.85;89.77;99075.34;5023313;28;20049;-62
2021/11/03 08:57:56;;;;;;;10.25;5.10;;;;;;;6.83;90.58;99070.19;5016808;28;20048;-61
2021/11/03 09:00:43;;;;;;;8.40;5.03;;;;;;;6.95;90.32;99076.16;5022048;28;20519;-62
2021/11/03 09:03:28;;;;;;;6.68;4.15;;;;;;;7.05;90.67;99076.94;5021268;28;20139;-61
2021/11/03 09:06:15;;;;;;;9.63;4.05;;;;;;;7.09;89.13;99077.47;5012609;28;20072;-63
2021/11/03 09:09:00;;;;;;;7.05;4.32;;;;;;;7.22;88.81;99070.78;5015741;28;20057;-62
2021/11/03 09:11:50;;;;;;;7.88;4.53;;;;;;;7.33;88.55;99069.69;5021835;28;20065;-63
2021/11/03 09:14:36;;;;;;;6.80;3.88;;;;;;;7.63;88.00;99071.16;5021008;28;20060;-63
2021/11/03 09:17:21;;;;;;;7.60;5.03;;;;;;;7.85;85.70;99065.34;5017292;28;20049;-63
2021/11/03 09:20:09;;;;;;;7.20;4.00;;;;;;;8.12;85.24;99064.34;5017594;28;20064;-63
2021/11/03 09:22:56;;;;;;;6.93;4.00;;;;;;;8.16;83.31;99059.53;5018360;28;20057;-63
2021/11/03 09:25:41;;;;;;;6.55;4.05;;;;;;;8.24;83.83;99064.09;5020266;28;20053;-63
2021/11/03 09:28:30;;;;;;;6.97;3.55;;;;;;;8.19;83.88;99062.75;5016027;28;20114;-64
2021/11/03 09:31:16;;;;;;;7.38;3.92;;;;;;;7.90;84.67;99063.03;5018635;28;20519;-62
2021/11/03 09:34:01;;;;;;;6.25;3.42;;;;;;;8.03;85.53;99061.78;5015432;28;20071;-59
2021/11/03 09:36:51;;;;;;;7.85;4.00;;;;;;;8.16;83.91;99062.19;5018149;28;20056;-63
2021/11/03 09:39:39;;;;;;;7.13;3.63;;;;;;;8.11;83.83;99053.81;5021210;28;20511;-61
2021/11/03 09:42:27;;;;;;;6.80;3.92;;;;;;;8.33;83.06;99057.81;5020660;28;20068;-63
2021/11/03 09:45:19;;;;;;;5.38;3.10;;;;;;;8.52;82.58;99060.25;5017420;28;20056;-64
2021/11/03 09:48:17;;;;;;;6.47;3.20;;;;;;;8.48;82.04;99058.91;5015903;28;20052;-64
2021/11/03 09:51:05;;;;;;;4.28;2.83;;;;;;;8.17;82.39;99054.03;5019605;28;20075;-65
2021/11/03 09:53:53;;;;;;;7.13;3.85;;;;;;;8.48;82.75;99062.41;5019981;28;20053;-63
2021/11/03 09:56:47;;;;;;;5.85;2.70;;;;;;;8.76;81.06;99064.88;5022032;28;20411;-62
2021/11/03 09:59:38;;;;;;;11.25;3.47;;;;;;;9.04;80.43;99063.66;5013674;28;20132;-63
2021/11/03 10:02:36;;;;;;;6.18;3.42;;;;;;;9.14;79.42;99065.34;5020416;28;20056;-63
2021/11/03 10:05:29;;;;;;;4.85;3.00;;;;;;;9.12;79.75;99067.38;5018498;28;20132;-64
2021/11/03 10:08:17;;;;;;;4.13;2.60;;;;;;;9.04;79.32;99071.69;5021509;28;20056;-63
2021/11/03 10:11:06;;;;;;;5.43;2.90;;;;;;;9.15;79.10;99064.34;5023211;28;20056;-63
2021/11/03 10:13:54;;;;;;;5.78;2.60;;;;;;;9.35;79.22;99055.88;5025743;28;20474;-63
2021/11/03 10:16:41;;;;;;;5.40;2.97;;;;;;;9.54;78.67;99054.69;5022864;28;20114;-61
2021/11/03 10:19:33;;;;;;;5.50;3.20;;;;;;;9.75;76.94;99056.06;5028256;28;20048;-63
2021/11/03 10:22:30;;;;;;;5.07;3.35;;;;;;;10.16;76.32;99064.88;5025146;28;20056;-63
2021/11/03 10:25:23;;;;;;;4.40;2.90;;;;;;;10.44;74.03;99062.69;5023103;28;20052;-63
2021/11/03 10:28:27;;;;;;;7.55;4.03;;;;;;;11.00;71.68;99056.25;5028902;28;20411;-63
2021/11/03 10:31:25;;;;;;;4.53;3.17;;;;;;;10.98;70.88;99055.59;5027352;28;20130;-62
2021/11/03 10:34:21;;;;;;;4.75;3.13;;;;;;;10.83;71.57;99047.44;5028022;28;20091;-63
2021/11/03 10:37:18;;;;;;;4.13;2.60;;;;;;;10.82;70.58;99045.78;5028762;28;20517;-61
2021/11/03 10:40:07;;;;;;;;;;;;;;;10.71;70.44;99048.84;5029140;28;20083;-62
2021/11/03 10:42:56;;;;;;;9.43;2.90;;;;;;;10.47;70.94;99056.97;5027899;28;19991;-62
2021/11/03 10:45:41;;;;;;;3.85;2.50;;;;;;;10.61;70.49;99048.22;5028710;28;20060;-64
2021/11/03 10:48:29;;;;;;;3.75;2.60;;;;;;;10.52;70.95;99052.75;5019722;28;20087;-64
2021/11/03 10:51:17;;;;;;;5.82;2.85;;;;;;;10.50;69.42;99059.31;5023529;28;20099;-64
2021/11/03 10:54:06;;;;;;;6.43;3.75;;;;;;;10.40;70.92;99050.63;5019394;28;20188;-63
2021/11/03 10:56:55;;;;;;;3.65;2.63;;;;;;;10.32;71.69;99053.34;5020988;28;20526;-64
2021/11/03 10:59:48;;;;;;;4.35;2.72;;;;;;;10.23;73.11;99049.84;5029431;28;20419;-62
2021/11/03 11:02:47;;;;;;;5.20;3.88;;;;;;;10.31;74.15;99051.69;5025924;28;20419;-63
2021/11/03 11:05:36;;;;;;;4.35;3.30;;;;;;;10.48;73.30;99042.56;5026386;28;20427;-64
2021/11/03 11:08:26;;;;;;;5.55;3.72;;;;;;;10.67;73.03;99031.44;5025051;28;20439;-62
2021/11/03 11:11:15;;;;;;;4.40;3.00;;;;;;;10.37;71.70;99030.34;5023333;28;20322;-63
2021/11/03 11:14:04;;;;;;;5.00;3.35;;;;;;;10.03;72.38;99027.03;5021015;28;20187;-62
2021/11/03 11:16:55;;;;;;;8.68;3.70;;;;;;;9.98;73.05;99024.06;5027939;28;20055;-64
2021/11/03 11:19:58;;;;;;;9.30;3.00;;;;;;;10.04;73.04;99024.19;5019736;28;20143;-64
2021/11/03 11:23:00;;;;;;;6.25;3.33;;;;;;;10.33;72.67;99029.03;5024534;28;20057;-62
2021/11/03 11:26:06;;;;;;;4.80;3.00;;;;;;;10.57;72.60;99019.22;5028107;28;20148;-62
2021/11/03 11:29:04;;;;;;;4.88;3.20;;;;;;;10.72;69.81;99004.91;5015152;28;20064;-60
2021/11/03 11:31:56;;;;;;;5.25;3.17;;;;;;;10.81;70.37;99000.34;5029078;28;20052;-63
2021/11/03 11:35:01;;;;;;;9.95;3.53;;;;;;;10.70;68.39;99004.25;5029173;28;20150;-63
2021/11/03 11:38:01;;;;;;;12.52;5.28;;;;;;;10.74;67.99;99002.88;5033746;28;20107;-62
2021/11/03 11:40:51;;;;;;;6.10;3.78;;;;;;;10.76;67.94;98987.41;5033783;28;20060;-62
2021/11/03 11:43:40;;;;;;;6.70;3.05;;;;;;;11.14;66.85;98990.25;5033613;28;20057;-63
2021/11/03 11:46:29;;;;;;;4.93;3.38;;;;;;;10.72;67.84;98994.16;5033462;28;20061;-62
2021/11/03 11:49:21;;;;;;;8.13;3.35;;;;;;;10.82;66.13;98986.72;5033430;28;20055;-62
2021/11/03 11:52:13;;;;;;;5.65;3.53;;;;;;;10.75;66.25;98991.13;5033536;28;20053;-65
2021/11/03 11:55:20;;;;;;;6.32;3.60;;;;;;;10.84;64.80;98986.56;5018823;28;20071;-62
2021/11/03 11:58:26;;;;;;;4.78;3.05;;;;;;;10.82;67.90;98981.38;5033117;28;20060;-64
2021/11/03 12:01:20;;;;;;;5.93;3.17;;;;;;;10.67;69.11;98985.81;5033427;28;20068;-64
2021/11/03 12:04:24;;;;;;;6.28;3.55;;;;;;;10.32;70.63;98989.81;5033412;28;20064;-62
2021/11/03 12:07:24;;;;;;;4.68;3.20;;;;;;;10.23;71.59;98994.34;5033308;28;20144;-62
2021/11/03 12:10:28;;;;;;;5.10;3.55;;;;;;;10.48;69.95;98979.00;5024062;28;20055;-63
2021/11/03 12:13:22;;;;;;;5.45;3.05;;;;;;;10.53;66.65;98981.16;5028162;28;20418;-63
2021/11/03 12:16:20;;;;;;;3.65;2.50;;;;;;;10.27;64.97;98994.00;5026506;28;20052;-63
2021/11/03 12:19:43;;;;;;;4.85;3.30;;;;;;;10.63;67.15;98992.53;5019649;28;20139;-62
2021/11/03 12:22:53;;;;;;;4.90;3.22;;;;;;;10.59;67.01;98991.22;5027869;28;20057;-62
2021/11/03 12:25:44;;;;;;;5.05;3.17;;;;;;;10.45;67.62;98994.63;5026052;28;20169;-63
2021/11/03 12:28:46;;;;;;;4.38;2.85;;;;;;;10.22;67.42;98998.06;5020367;28;20523;-64
2021/11/03 12:31:54;;;;;;;4.70;2.85;;;;;;;10.00;67.33;98979.16;5028802;28;20515;-62
2021/11/03 12:34:41;;;;;;;5.28;2.88;;;;;;;9.84;68.66;98982.69;5024362;28;20060;-63
2021/11/03 12:37:31;;;;;;;7.32;2.83;;;;;;;9.74;69.23;98984.72;5024525;28;20618;-62
2021/11/03 12:40:38;;;;;;;4.43;2.80;;;;;;;9.68;69.83;98980.84;5022570;28;20412;-62
2021/11/03 12:43:27;;;;;;;3.42;2.40;;;;;;;9.61;69.59;98978.03;5024113;28;20055;-62
2021/11/03 12:46:16;;;;;;;4.78;2.38;;;;;;;9.44;68.08;98971.00;5028431;28;20158;-62
2021/11/03 12:49:02;;;;;;;3.00;1.83;;;;;;;9.42;68.07;98981.03;5025747;28;20522;-63
2021/11/03 12:51:50;;;;;;;3.35;2.38;;;;;;;9.40;68.35;98985.75;5024552;28;20546;-64
2021/11/03 12:54:35;;;;;;;5.32;2.50;;;;;;;9.51;68.34;98981.88;5028144;28;20137;-64
2021/11/03 12:57:24;;;;;;;4.10;2.10;;;;;;;9.57;69.19;98992.75;5024121;28;20514;-62
2021/11/03 13:00:16;;;;;;;3.60;2.20;;;;;;;9.62;69.20;98987.75;5030645;28;20404;-63
2021/11/03 13:03:04;;;;;;;3.50;1.80;;;;;;;9.70;69.88;98999.44;5029146;28;20118;-62
2021/11/03 13:05:51;;;;;;;2.72;1.80;;;;;;;9.73;69.65;98994.59;5024597;28;20558;-63
2021/11/03 13:08:42;;;;;;;3.10;2.00;;;;;;;9.75;69.89;98986.38;5029457;28;20052;-64
2021/11/03 13:11:33;;;;;;;3.38;2.03;;;;;;;9.64;69.87;98980.38;5026217;28;20056;-63
2021/11/03 13:14:23;;;;;;;4.97;1.90;;;;;;;9.64;70.28;98980.38;5026714;28;20052;-63
2021/11/03 13:17:08;;;;;;;5.90;1.77;;;;;;;9.64;70.72;98976.84;5027782;28;20412;-63
2021/11/03 13:19:53;;;;;;;2.95;1.92;;;;;;;9.62;69.90;98977.03;5028678;28;20056;-65